LIC0209 GCLA-LEBA
Flight info
| Callsign | LIC0209 |
|---|---|
| Flight time | 1h 56m |
| Altitude | 34000 |
| Route | KORAL UG5 SONSO DCT ADUBI N871 VJF N10 SVL N747 AMOTA |
| Aircraft | A321/M-SDE3FGHIRWY/LB1 |
Departure
| Time | 2026-05-08 20:04 |
|---|---|
| Airport | La Palma Airport (GCLA) |
Arrival
| Time | 2026-05-08 22:00 |
|---|---|
| Airport | Córdoba Airport (LEBA) |
| Time | Latitude | Longitude | Altitude | Speed | Heading |
|---|---|---|---|---|---|
| 2026-05-08 19:46 | 28.62083 | -17.75372 | 114 ft | 0 kts | 89° |
| 2026-05-08 19:55 | 28.62083 | -17.75400 | 112 ft | 3 kts | 89° |
| 2026-05-08 19:56 | 28.62085 | -17.75426 | 111 ft | 4 kts | 121° |
| 2026-05-08 19:56 | 28.62103 | -17.75440 | 111 ft | 4 kts | 176° |
| 2026-05-08 19:56 | 28.62118 | -17.75440 | 112 ft | 1 kts | 179° |
| 2026-05-08 19:56 | 28.62119 | -17.75440 | 112 ft | 0 kts | 179° |
| 2026-05-08 19:59 | 28.62116 | -17.75443 | 113 ft | 4 kts | 198° |
| 2026-05-08 20:00 | 28.62074 | -17.75493 | 116 ft | 3 kts | 238° |
| 2026-05-08 20:00 | 28.62067 | -17.75504 | 113 ft | 4 kts | 232° |
| 2026-05-08 20:00 | 28.62029 | -17.75535 | 113 ft | 7 kts | 203° |
| 2026-05-08 20:00 | 28.61987 | -17.75540 | 116 ft | 6 kts | 182° |
| 2026-05-08 20:01 | 28.61945 | -17.75542 | 114 ft | 9 kts | 182° |
| 2026-05-08 20:01 | 28.61868 | -17.75543 | 116 ft | 12 kts | 180° |
| 2026-05-08 20:01 | 28.61784 | -17.75542 | 114 ft | 12 kts | 177° |
| 2026-05-08 20:01 | 28.61701 | -17.75567 | 112 ft | 12 kts | 195° |
| 2026-05-08 20:02 | 28.61689 | -17.75543 | 112 ft | 2 kts | 19° |
| 2026-05-08 20:02 | 28.61694 | -17.75544 | 112 ft | 1 kts | 358° |
| 2026-05-08 20:02 | 28.61725 | -17.75544 | 113 ft | 5 kts | 359° |
| 2026-05-08 20:02 | 28.61730 | -17.75544 | 113 ft | 0 kts | 359° |
| 2026-05-08 20:03 | 28.61811 | -17.75544 | 115 ft | 43 kts | 1° |
| 2026-05-08 20:03 | 28.62363 | -17.75555 | 114 ft | 113 kts | 359° |
| 2026-05-08 20:03 | 28.63343 | -17.75573 | 102 ft | 165 kts | 360° |
| 2026-05-08 20:03 | 28.64511 | -17.75544 | 635 ft | 168 kts | 2° |
| 2026-05-08 20:04 | 28.65678 | -17.75405 | 1289 ft | 170 kts | 9° |
| 2026-05-08 20:04 | 28.66625 | -17.74583 | 1937 ft | 184 kts | 58° |
| 2026-05-08 20:04 | 28.66880 | -17.73089 | 2200 ft | 205 kts | 89° |
| 2026-05-08 20:04 | 28.66797 | -17.71392 | 2346 ft | 224 kts | 95° |
| 2026-05-08 20:05 | 28.66655 | -17.69565 | 2581 ft | 237 kts | 94° |
| 2026-05-08 20:05 | 28.66601 | -17.67678 | 3011 ft | 240 kts | 80° |
| 2026-05-08 20:05 | 28.67236 | -17.65940 | 3417 ft | 246 kts | 51° |
| 2026-05-08 20:05 | 28.68354 | -17.64353 | 3646 ft | 268 kts | 47° |
| 2026-05-08 20:06 | 28.69570 | -17.62694 | 4184 ft | 277 kts | 49° |
| 2026-05-08 20:06 | 28.70447 | -17.60714 | 4831 ft | 287 kts | 76° |
| 2026-05-08 20:06 | 28.70509 | -17.58433 | 5488 ft | 293 kts | 97° |
| 2026-05-08 20:06 | 28.70224 | -17.56123 | 6172 ft | 296 kts | 98° |
| 2026-05-08 20:07 | 28.69926 | -17.53789 | 6810 ft | 300 kts | 98° |
| 2026-05-08 20:07 | 28.69621 | -17.51417 | 7391 ft | 305 kts | 98° |
| 2026-05-08 20:07 | 28.69316 | -17.49010 | 7985 ft | 309 kts | 97° |
| 2026-05-08 20:07 | 28.69012 | -17.46561 | 8560 ft | 315 kts | 97° |
| 2026-05-08 20:08 | 28.68706 | -17.44072 | 9115 ft | 320 kts | 97° |
| 2026-05-08 20:08 | 28.68393 | -17.41546 | 9683 ft | 325 kts | 97° |
| 2026-05-08 20:08 | 28.68072 | -17.38977 | 10185 ft | 330 kts | 97° |
| 2026-05-08 20:08 | 28.67739 | -17.36313 | 10342 ft | 350 kts | 97° |
| 2026-05-08 20:09 | 28.67389 | -17.33500 | 10462 ft | 368 kts | 97° |
| 2026-05-08 20:09 | 28.67025 | -17.30548 | 10584 ft | 385 kts | 97° |
| 2026-05-08 20:09 | 28.66643 | -17.27473 | 10818 ft | 397 kts | 97° |
| 2026-05-08 20:09 | 28.66250 | -17.24336 | 11261 ft | 402 kts | 97° |
| 2026-05-08 20:10 | 28.65853 | -17.21172 | 11754 ft | 406 kts | 97° |
| 2026-05-08 20:10 | 28.65451 | -17.17975 | 12252 ft | 410 kts | 97° |
| 2026-05-08 20:10 | 28.65046 | -17.14749 | 12745 ft | 413 kts | 97° |
| 2026-05-08 20:10 | 28.64639 | -17.11497 | 13233 ft | 417 kts | 97° |
| 2026-05-08 20:11 | 28.64230 | -17.08259 | 13709 ft | 420 kts | 97° |
| 2026-05-08 20:11 | 28.63810 | -17.04953 | 14138 ft | 424 kts | 97° |
| 2026-05-08 20:11 | 28.63381 | -17.01575 | 14555 ft | 428 kts | 97° |
| 2026-05-08 20:11 | 28.62953 | -16.98207 | 14952 ft | 431 kts | 98° |
| 2026-05-08 20:12 | 28.62521 | -16.94817 | 15356 ft | 435 kts | 98° |
| 2026-05-08 20:12 | 28.62093 | -16.91446 | 15751 ft | 438 kts | 98° |
| 2026-05-08 20:12 | 28.61651 | -16.87960 | 16148 ft | 441 kts | 98° |
| 2026-05-08 20:12 | 28.61209 | -16.84496 | 16543 ft | 444 kts | 98° |
| 2026-05-08 20:13 | 28.60764 | -16.81058 | 16921 ft | 447 kts | 98° |
| 2026-05-08 20:13 | 28.60308 | -16.77551 | 17295 ft | 449 kts | 98° |
| 2026-05-08 20:13 | 28.59851 | -16.74027 | 17655 ft | 452 kts | 98° |
| 2026-05-08 20:13 | 28.59391 | -16.70481 | 17996 ft | 454 kts | 98° |
| 2026-05-08 20:14 | 28.58928 | -16.66913 | 18320 ft | 457 kts | 98° |
| 2026-05-08 20:14 | 28.58462 | -16.63318 | 18594 ft | 461 kts | 98° |
| 2026-05-08 20:14 | 28.57994 | -16.59704 | 18859 ft | 464 kts | 98° |
| 2026-05-08 20:14 | 28.57524 | -16.56066 | 19125 ft | 467 kts | 98° |
| 2026-05-08 20:15 | 28.57047 | -16.52399 | 19388 ft | 470 kts | 99° |
| 2026-05-08 20:15 | 28.56566 | -16.48714 | 19650 ft | 473 kts | 99° |
| 2026-05-08 20:15 | 28.56078 | -16.45009 | 19898 ft | 475 kts | 99° |
| 2026-05-08 20:15 | 28.55585 | -16.41279 | 20173 ft | 478 kts | 99° |
| 2026-05-08 20:16 | 28.55088 | -16.37526 | 20439 ft | 481 kts | 99° |
| 2026-05-08 20:16 | 28.54588 | -16.33754 | 20718 ft | 484 kts | 99° |
| 2026-05-08 20:16 | 28.54187 | -16.29941 | 20995 ft | 488 kts | 93° |
| 2026-05-08 20:16 | 28.54243 | -16.26079 | 21211 ft | 490 kts | 83° |
| 2026-05-08 20:17 | 28.54799 | -16.22246 | 21453 ft | 492 kts | 74° |
| 2026-05-08 20:17 | 28.55699 | -16.18487 | 21765 ft | 495 kts | 72° |
| 2026-05-08 20:17 | 28.56614 | -16.14705 | 22052 ft | 498 kts | 72° |
| 2026-05-08 20:17 | 28.57529 | -16.10886 | 22323 ft | 501 kts | 72° |
| 2026-05-08 20:18 | 28.58440 | -16.07055 | 22596 ft | 504 kts | 72° |
| 2026-05-08 20:18 | 28.59352 | -16.03190 | 22859 ft | 507 kts | 72° |
| 2026-05-08 20:18 | 28.60268 | -15.99299 | 23135 ft | 510 kts | 72° |
| 2026-05-08 20:18 | 28.61192 | -15.95384 | 23341 ft | 514 kts | 73° |
| 2026-05-08 20:19 | 28.62126 | -15.91446 | 23584 ft | 518 kts | 73° |
| 2026-05-08 20:19 | 28.63067 | -15.87474 | 23801 ft | 520 kts | 73° |
| 2026-05-08 20:19 | 28.64007 | -15.83489 | 24026 ft | 523 kts | 73° |
| 2026-05-08 20:19 | 28.64951 | -15.79485 | 24257 ft | 525 kts | 73° |
| 2026-05-08 20:20 | 28.65896 | -15.75465 | 24484 ft | 527 kts | 73° |
| 2026-05-08 20:20 | 28.66844 | -15.71422 | 24711 ft | 529 kts | 73° |
| 2026-05-08 20:20 | 28.67793 | -15.67367 | 24936 ft | 531 kts | 73° |
| 2026-05-08 20:20 | 28.68745 | -15.63292 | 25171 ft | 533 kts | 73° |
| 2026-05-08 20:21 | 28.69701 | -15.59203 | 25369 ft | 536 kts | 73° |
| 2026-05-08 20:21 | 28.70664 | -15.55086 | 25586 ft | 538 kts | 73° |
| 2026-05-08 20:21 | 28.71630 | -15.50961 | 25812 ft | 540 kts | 73° |
| 2026-05-08 20:21 | 28.72599 | -15.46821 | 26021 ft | 542 kts | 73° |
| 2026-05-08 20:22 | 28.73573 | -15.42658 | 26243 ft | 545 kts | 73° |
| 2026-05-08 20:22 | 28.74546 | -15.38478 | 26458 ft | 547 kts | 73° |
| 2026-05-08 20:22 | 28.75517 | -15.34281 | 26666 ft | 549 kts | 73° |
| 2026-05-08 20:22 | 28.76159 | -15.31497 | 26803 ft | 550 kts | 73° |
| 2026-05-08 20:23 | 28.77462 | -15.25838 | 27065 ft | 553 kts | 73° |
| 2026-05-08 20:23 | 28.78442 | -15.21597 | 27277 ft | 554 kts | 73° |
| 2026-05-08 20:23 | 28.79426 | -15.17340 | 27468 ft | 556 kts | 73° |
| 2026-05-08 20:23 | 28.80397 | -15.13128 | 27647 ft | 558 kts | 73° |
| 2026-05-08 20:24 | 28.81383 | -15.08850 | 27817 ft | 560 kts | 73° |
| 2026-05-08 20:24 | 28.82374 | -15.04545 | 27988 ft | 561 kts | 73° |
| 2026-05-08 20:24 | 28.83363 | -15.00236 | 28147 ft | 563 kts | 73° |
| 2026-05-08 20:24 | 28.84352 | -14.95909 | 28303 ft | 564 kts | 73° |
| 2026-05-08 20:25 | 28.85343 | -14.91575 | 28461 ft | 566 kts | 73° |
| 2026-05-08 20:25 | 28.86333 | -14.87227 | 28594 ft | 567 kts | 73° |
| 2026-05-08 20:25 | 28.87323 | -14.82860 | 28736 ft | 569 kts | 73° |
| 2026-05-08 20:25 | 28.88311 | -14.78496 | 28907 ft | 569 kts | 73° |
| 2026-05-08 20:26 | 28.89300 | -14.74122 | 29089 ft | 569 kts | 73° |
| 2026-05-08 20:26 | 28.90293 | -14.69744 | 29263 ft | 569 kts | 73° |
| 2026-05-08 20:26 | 28.91286 | -14.65374 | 29457 ft | 569 kts | 73° |
| 2026-05-08 20:26 | 28.92279 | -14.60996 | 29629 ft | 569 kts | 73° |
| 2026-05-08 20:27 | 28.93269 | -14.56622 | 29799 ft | 570 kts | 74° |
| 2026-05-08 20:27 | 28.94255 | -14.52243 | 29968 ft | 570 kts | 74° |
| 2026-05-08 20:27 | 28.95237 | -14.47857 | 30129 ft | 570 kts | 74° |
| 2026-05-08 20:27 | 28.96218 | -14.43468 | 30281 ft | 570 kts | 74° |
| 2026-05-08 20:28 | 28.97200 | -14.39086 | 30425 ft | 570 kts | 74° |
| 2026-05-08 20:28 | 28.98185 | -14.34697 | 30575 ft | 570 kts | 74° |
| 2026-05-08 20:28 | 28.99169 | -14.30310 | 30730 ft | 570 kts | 74° |
| 2026-05-08 20:28 | 29.00151 | -14.25921 | 30889 ft | 570 kts | 74° |
| 2026-05-08 20:29 | 29.01129 | -14.21530 | 31052 ft | 570 kts | 74° |
| 2026-05-08 20:29 | 29.02101 | -14.17138 | 31193 ft | 571 kts | 74° |
| 2026-05-08 20:29 | 29.03075 | -14.12742 | 31336 ft | 571 kts | 74° |
| 2026-05-08 20:29 | 29.04036 | -14.08399 | 31490 ft | 571 kts | 74° |
| 2026-05-08 20:30 | 29.05022 | -14.03941 | 31649 ft | 571 kts | 74° |
| 2026-05-08 20:30 | 29.05978 | -13.99607 | 31802 ft | 571 kts | 74° |
| 2026-05-08 20:30 | 29.06953 | -13.95199 | 31952 ft | 571 kts | 74° |
| 2026-05-08 20:30 | 29.07927 | -13.90799 | 32106 ft | 571 kts | 74° |
| 2026-05-08 20:31 | 29.08900 | -13.86397 | 32266 ft | 571 kts | 74° |
| 2026-05-08 20:31 | 29.09871 | -13.81997 | 32429 ft | 571 kts | 75° |
| 2026-05-08 20:31 | 29.10838 | -13.77591 | 32579 ft | 572 kts | 75° |
| 2026-05-08 20:31 | 29.11800 | -13.73175 | 32775 ft | 572 kts | 75° |
| 2026-05-08 20:32 | 29.12762 | -13.68761 | 32910 ft | 573 kts | 75° |
| 2026-05-08 20:32 | 29.13728 | -13.64334 | 33038 ft | 573 kts | 75° |
| 2026-05-08 20:32 | 29.14690 | -13.59912 | 33193 ft | 573 kts | 75° |
| 2026-05-08 20:32 | 29.15704 | -13.55508 | 33343 ft | 572 kts | 70° |
| 2026-05-08 20:33 | 29.17112 | -13.51268 | 33483 ft | 568 kts | 61° |
| 2026-05-08 20:33 | 29.18961 | -13.47304 | 33675 ft | 562 kts | 52° |
| 2026-05-08 20:33 | 29.21152 | -13.43626 | 33800 ft | 559 kts | 49° |
| 2026-05-08 20:33 | 29.23389 | -13.39986 | 33968 ft | 559 kts | 49° |
| 2026-05-08 20:34 | 29.27842 | -13.32710 | 34018 ft | 556 kts | 49° |
| 2026-05-08 20:35 | 29.34482 | -13.21815 | 34025 ft | 556 kts | 49° |
| 2026-05-08 20:35 | 29.38904 | -13.14548 | 34023 ft | 556 kts | 49° |
| 2026-05-08 20:36 | 29.42581 | -13.08506 | 34028 ft | 556 kts | 49° |
| 2026-05-08 20:36 | 29.47001 | -13.01221 | 34025 ft | 556 kts | 49° |
| 2026-05-08 20:37 | 29.51414 | -12.93922 | 33992 ft | 555 kts | 49° |
| 2026-05-08 20:37 | 29.55817 | -12.86631 | 33987 ft | 556 kts | 49° |
| 2026-05-08 20:38 | 29.60229 | -12.79328 | 33994 ft | 557 kts | 49° |
| 2026-05-08 20:38 | 29.64643 | -12.72004 | 33998 ft | 558 kts | 50° |
| 2026-05-08 20:39 | 29.69053 | -12.64660 | 34000 ft | 558 kts | 50° |
| 2026-05-08 20:39 | 29.73464 | -12.57302 | 34003 ft | 558 kts | 50° |
| 2026-05-08 20:40 | 29.77849 | -12.49929 | 34007 ft | 559 kts | 50° |
| 2026-05-08 20:40 | 29.82217 | -12.42523 | 34029 ft | 560 kts | 50° |
| 2026-05-08 20:41 | 29.86582 | -12.35108 | 33973 ft | 559 kts | 51° |
| 2026-05-08 20:41 | 29.90951 | -12.27681 | 33984 ft | 560 kts | 51° |
| 2026-05-08 20:42 | 29.95332 | -12.20236 | 33985 ft | 561 kts | 51° |
| 2026-05-08 20:42 | 29.99770 | -12.12829 | 33988 ft | 558 kts | 45° |
| 2026-05-08 20:43 | 30.05157 | -12.06596 | 33993 ft | 541 kts | 29° |
| 2026-05-08 20:43 | 30.11071 | -12.01224 | 33978 ft | 541 kts | 30° |
| 2026-05-08 20:44 | 30.16982 | -11.95827 | 33990 ft | 542 kts | 30° |
| 2026-05-08 20:44 | 30.22900 | -11.90417 | 33986 ft | 542 kts | 30° |
| 2026-05-08 20:45 | 30.28769 | -11.85026 | 33995 ft | 543 kts | 30° |
| 2026-05-08 20:45 | 30.34678 | -11.79587 | 33996 ft | 543 kts | 30° |
| 2026-05-08 20:46 | 30.40595 | -11.74153 | 33998 ft | 543 kts | 30° |
| 2026-05-08 20:46 | 30.46518 | -11.68699 | 34000 ft | 544 kts | 30° |
| 2026-05-08 20:47 | 30.52438 | -11.63229 | 33986 ft | 545 kts | 30° |
| 2026-05-08 20:47 | 30.58369 | -11.57751 | 33974 ft | 545 kts | 30° |
| 2026-05-08 20:48 | 30.64307 | -11.52250 | 33989 ft | 546 kts | 30° |
| 2026-05-08 20:48 | 30.70246 | -11.46745 | 33985 ft | 547 kts | 30° |
| 2026-05-08 20:49 | 30.76197 | -11.41226 | 34012 ft | 548 kts | 30° |
| 2026-05-08 20:49 | 30.82154 | -11.35682 | 33982 ft | 549 kts | 30° |
| 2026-05-08 20:50 | 30.88119 | -11.30129 | 33952 ft | 549 kts | 31° |
| 2026-05-08 20:50 | 30.94094 | -11.24554 | 33973 ft | 551 kts | 31° |
| 2026-05-08 20:51 | 31.00074 | -11.18966 | 33980 ft | 551 kts | 31° |
| 2026-05-08 20:51 | 31.06056 | -11.13357 | 33997 ft | 553 kts | 31° |
| 2026-05-08 20:52 | 31.12047 | -11.07734 | 33975 ft | 553 kts | 31° |
| 2026-05-08 20:52 | 31.18049 | -11.02095 | 33964 ft | 554 kts | 31° |
| 2026-05-08 20:53 | 31.24063 | -10.96443 | 33973 ft | 555 kts | 31° |
| 2026-05-08 20:53 | 31.30077 | -10.90780 | 33947 ft | 555 kts | 32° |
| 2026-05-08 20:54 | 31.36100 | -10.85099 | 34024 ft | 557 kts | 32° |
| 2026-05-08 20:54 | 31.42129 | -10.79395 | 33984 ft | 558 kts | 33° |
| 2026-05-08 20:55 | 31.48165 | -10.73665 | 33978 ft | 559 kts | 33° |
| 2026-05-08 20:55 | 31.54204 | -10.67931 | 33977 ft | 559 kts | 33° |
| 2026-05-08 20:56 | 31.60248 | -10.62179 | 33979 ft | 560 kts | 33° |
| 2026-05-08 20:56 | 31.66296 | -10.56424 | 33937 ft | 559 kts | 33° |
| 2026-05-08 20:57 | 31.72329 | -10.50671 | 33946 ft | 559 kts | 34° |
| 2026-05-08 20:57 | 31.78375 | -10.44900 | 33949 ft | 560 kts | 34° |
| 2026-05-08 20:58 | 31.84386 | -10.39147 | 33960 ft | 561 kts | 34° |
| 2026-05-08 20:58 | 31.90429 | -10.33339 | 33965 ft | 562 kts | 34° |
| 2026-05-08 20:59 | 31.96488 | -10.27514 | 33991 ft | 562 kts | 34° |
| 2026-05-08 20:59 | 32.02542 | -10.21692 | 33961 ft | 562 kts | 34° |
| 2026-05-08 21:00 | 32.08596 | -10.15863 | 33942 ft | 562 kts | 34° |
| 2026-05-08 21:00 | 32.14656 | -10.10012 | 33950 ft | 563 kts | 34° |
| 2026-05-08 21:01 | 32.20722 | -10.04145 | 33959 ft | 564 kts | 35° |
| 2026-05-08 21:01 | 32.26786 | -9.98266 | 33962 ft | 563 kts | 36° |
| 2026-05-08 21:02 | 32.32831 | -9.92390 | 33956 ft | 563 kts | 36° |
| 2026-05-08 21:02 | 32.38882 | -9.86505 | 33952 ft | 563 kts | 36° |
| 2026-05-08 21:03 | 32.44932 | -9.80611 | 33969 ft | 564 kts | 36° |
| 2026-05-08 21:03 | 32.51003 | -9.74693 | 33978 ft | 566 kts | 36° |
| 2026-05-08 21:04 | 32.57054 | -9.68769 | 33934 ft | 563 kts | 36° |
| 2026-05-08 21:04 | 32.63079 | -9.62852 | 33937 ft | 563 kts | 36° |
| 2026-05-08 21:05 | 32.69121 | -9.56932 | 33938 ft | 563 kts | 36° |
| 2026-05-08 21:05 | 32.75160 | -9.51002 | 33945 ft | 564 kts | 36° |
| 2026-05-08 21:06 | 32.81199 | -9.45061 | 33938 ft | 564 kts | 37° |
| 2026-05-08 21:06 | 32.87191 | -9.39144 | 33949 ft | 564 kts | 37° |
| 2026-05-08 21:07 | 32.93216 | -9.33174 | 33946 ft | 564 kts | 37° |
| 2026-05-08 21:07 | 32.99237 | -9.27197 | 33956 ft | 564 kts | 37° |
| 2026-05-08 21:08 | 33.05311 | -9.21187 | 33962 ft | 564 kts | 37° |
| 2026-05-08 21:08 | 33.11300 | -9.15246 | 33969 ft | 564 kts | 37° |
| 2026-05-08 21:09 | 33.17323 | -9.09258 | 33963 ft | 564 kts | 37° |
| 2026-05-08 21:09 | 33.23372 | -9.03210 | 33950 ft | 563 kts | 37° |
| 2026-05-08 21:10 | 33.29368 | -8.97194 | 33959 ft | 563 kts | 37° |
| 2026-05-08 21:10 | 33.35366 | -8.91187 | 33965 ft | 562 kts | 37° |
| 2026-05-08 21:11 | 33.41366 | -8.85183 | 33959 ft | 562 kts | 38° |
| 2026-05-08 21:11 | 33.47359 | -8.79176 | 33955 ft | 562 kts | 38° |
| 2026-05-08 21:12 | 33.53296 | -8.73182 | 33948 ft | 562 kts | 38° |
| 2026-05-08 21:12 | 33.59271 | -8.67147 | 33954 ft | 562 kts | 38° |
| 2026-05-08 21:13 | 33.65247 | -8.61106 | 33967 ft | 561 kts | 38° |
| 2026-05-08 21:13 | 33.71212 | -8.55070 | 33929 ft | 559 kts | 38° |
| 2026-05-08 21:14 | 33.77199 | -8.49000 | 33936 ft | 560 kts | 38° |
| 2026-05-08 21:14 | 33.83102 | -8.42994 | 33934 ft | 560 kts | 38° |
| 2026-05-08 21:15 | 33.89051 | -8.36928 | 33933 ft | 560 kts | 38° |
| 2026-05-08 21:15 | 33.94993 | -8.30868 | 33997 ft | 559 kts | 39° |
| 2026-05-08 21:16 | 34.00909 | -8.24829 | 33931 ft | 557 kts | 39° |
| 2026-05-08 21:16 | 34.06812 | -8.18782 | 33934 ft | 557 kts | 39° |
| 2026-05-08 21:17 | 34.12712 | -8.12718 | 33921 ft | 557 kts | 39° |
| 2026-05-08 21:17 | 34.18619 | -8.06650 | 33930 ft | 558 kts | 39° |
| 2026-05-08 21:18 | 34.24524 | -8.00570 | 33972 ft | 558 kts | 39° |
| 2026-05-08 21:18 | 34.30433 | -7.94469 | 33955 ft | 559 kts | 40° |
| 2026-05-08 21:19 | 34.36336 | -7.88353 | 33950 ft | 559 kts | 40° |
| 2026-05-08 21:19 | 34.42245 | -7.82231 | 33944 ft | 559 kts | 40° |
| 2026-05-08 21:20 | 34.48111 | -7.76144 | 33946 ft | 559 kts | 40° |
| 2026-05-08 21:20 | 34.54017 | -7.70000 | 33964 ft | 559 kts | 40° |
| 2026-05-08 21:21 | 34.59915 | -7.63850 | 33959 ft | 559 kts | 40° |
| 2026-05-08 21:21 | 34.65808 | -7.57689 | 33905 ft | 558 kts | 40° |
| 2026-05-08 21:22 | 34.71691 | -7.51536 | 33939 ft | 558 kts | 40° |
| 2026-05-08 21:22 | 34.77564 | -7.45388 | 33980 ft | 557 kts | 41° |
| 2026-05-08 21:23 | 34.82435 | -7.40279 | 33947 ft | 555 kts | 41° |
| 2026-05-08 21:23 | 34.88283 | -7.34125 | 33947 ft | 556 kts | 41° |
| 2026-05-08 21:24 | 34.94127 | -7.27965 | 33941 ft | 556 kts | 41° |
| 2026-05-08 21:24 | 34.99974 | -7.21789 | 33907 ft | 556 kts | 41° |
| 2026-05-08 21:25 | 35.05816 | -7.15608 | 33959 ft | 556 kts | 41° |
| 2026-05-08 21:25 | 35.11650 | -7.09410 | 33959 ft | 556 kts | 41° |
| 2026-05-08 21:26 | 35.17485 | -7.03209 | 33957 ft | 556 kts | 41° |
| 2026-05-08 21:26 | 35.23321 | -6.97010 | 33955 ft | 556 kts | 41° |
| 2026-05-08 21:27 | 35.29147 | -6.90791 | 33952 ft | 556 kts | 41° |
| 2026-05-08 21:27 | 35.34967 | -6.84559 | 33970 ft | 556 kts | 41° |
| 2026-05-08 21:28 | 35.40794 | -6.78323 | 33940 ft | 556 kts | 41° |
| 2026-05-08 21:28 | 35.46615 | -6.72087 | 33947 ft | 556 kts | 41° |
| 2026-05-08 21:29 | 35.52436 | -6.65838 | 33944 ft | 556 kts | 41° |
| 2026-05-08 21:29 | 35.58241 | -6.59570 | 33979 ft | 556 kts | 41° |
| 2026-05-08 21:30 | 35.64044 | -6.53303 | 33911 ft | 555 kts | 41° |
| 2026-05-08 21:30 | 35.69845 | -6.47030 | 33908 ft | 556 kts | 41° |
| 2026-05-08 21:31 | 35.75635 | -6.40756 | 33933 ft | 555 kts | 41° |
| 2026-05-08 21:31 | 35.81427 | -6.34471 | 33942 ft | 555 kts | 41° |
| 2026-05-08 21:32 | 35.87578 | -6.28773 | 33942 ft | 553 kts | 33° |
| 2026-05-08 21:32 | 35.93905 | -6.23380 | 33948 ft | 552 kts | 33° |
| 2026-05-08 21:33 | 36.00214 | -6.17967 | 33944 ft | 552 kts | 33° |
| 2026-05-08 21:33 | 36.06517 | -6.12554 | 33944 ft | 552 kts | 33° |
| 2026-05-08 21:34 | 36.12827 | -6.07137 | 33917 ft | 552 kts | 33° |
| 2026-05-08 21:34 | 36.19127 | -6.01736 | 33937 ft | 550 kts | 30° |
| 2026-05-08 21:35 | 36.25968 | -5.97713 | 33933 ft | 540 kts | 12° |
| 2026-05-08 21:35 | 36.33236 | -5.95903 | 33935 ft | 530 kts | 1° |
| 2026-05-08 21:36 | 36.40541 | -5.94624 | 33940 ft | 530 kts | 1° |
| 2026-05-08 21:36 | 36.47843 | -5.93318 | 33937 ft | 531 kts | 1° |
| 2026-05-08 21:37 | 36.55159 | -5.92009 | 33923 ft | 531 kts | 1° |
| 2026-05-08 21:37 | 36.62469 | -5.90702 | 33955 ft | 531 kts | 1° |
| 2026-05-08 21:38 | 36.69791 | -5.89398 | 33934 ft | 532 kts | 1° |
| 2026-05-08 21:38 | 36.77077 | -5.88098 | 33914 ft | 532 kts | 1° |
| 2026-05-08 21:39 | 36.84415 | -5.86786 | 33905 ft | 533 kts | 1° |
| 2026-05-08 21:39 | 36.91755 | -5.85458 | 33909 ft | 534 kts | 2° |
| 2026-05-08 21:40 | 36.99113 | -5.84128 | 33544 ft | 534 kts | 2° |
| 2026-05-08 21:40 | 37.02796 | -5.83464 | 33273 ft | 535 kts | 2° |
| 2026-05-08 21:40 | 37.06528 | -5.82792 | 32983 ft | 535 kts | 2° |
| 2026-05-08 21:41 | 37.13957 | -5.81468 | 30780 ft | 551 kts | 2° |
| 2026-05-08 21:41 | 37.17816 | -5.80779 | 29550 ft | 557 kts | 2° |
| 2026-05-08 21:41 | 37.21618 | -5.80092 | 28594 ft | 556 kts | 3° |
| 2026-05-08 21:41 | 37.25444 | -5.79382 | 28081 ft | 545 kts | 3° |
| 2026-05-08 21:42 | 37.29135 | -5.78695 | 27311 ft | 541 kts | 4° |
| 2026-05-08 21:42 | 37.32835 | -5.77986 | 26608 ft | 537 kts | 7° |
| 2026-05-08 21:42 | 37.36420 | -5.76690 | 25983 ft | 536 kts | 20° |
| 2026-05-08 21:42 | 37.39737 | -5.74590 | 25262 ft | 533 kts | 33° |
| 2026-05-08 21:43 | 37.42627 | -5.71759 | 24822 ft | 521 kts | 45° |
| 2026-05-08 21:43 | 37.45041 | -5.68345 | 24195 ft | 510 kts | 58° |
| 2026-05-08 21:43 | 37.46841 | -5.64574 | 23655 ft | 496 kts | 69° |
| 2026-05-08 21:43 | 37.48217 | -5.60696 | 23002 ft | 489 kts | 71° |
| 2026-05-08 21:44 | 37.49593 | -5.56757 | 22349 ft | 482 kts | 71° |
| 2026-05-08 21:44 | 37.50932 | -5.52912 | 21774 ft | 475 kts | 71° |
| 2026-05-08 21:44 | 37.52245 | -5.49148 | 21302 ft | 465 kts | 71° |
| 2026-05-08 21:44 | 37.53534 | -5.45458 | 20834 ft | 455 kts | 71° |
| 2026-05-08 21:45 | 37.54798 | -5.41844 | 20368 ft | 446 kts | 71° |
| 2026-05-08 21:45 | 37.56033 | -5.38303 | 19934 ft | 437 kts | 72° |
| 2026-05-08 21:45 | 37.57237 | -5.34833 | 19498 ft | 429 kts | 72° |
| 2026-05-08 21:45 | 37.58424 | -5.31415 | 19048 ft | 422 kts | 70° |
| 2026-05-08 21:46 | 37.59860 | -5.28192 | 18645 ft | 421 kts | 59° |
| 2026-05-08 21:46 | 37.61702 | -5.25322 | 18175 ft | 421 kts | 48° |
| 2026-05-08 21:46 | 37.63909 | -5.22910 | 17696 ft | 419 kts | 36° |
| 2026-05-08 21:46 | 37.66370 | -5.20997 | 17249 ft | 414 kts | 29° |
| 2026-05-08 21:47 | 37.68871 | -5.19208 | 16801 ft | 411 kts | 29° |
| 2026-05-08 21:47 | 37.71343 | -5.17426 | 16349 ft | 408 kts | 30° |
| 2026-05-08 21:47 | 37.73796 | -5.15652 | 15878 ft | 405 kts | 30° |
| 2026-05-08 21:47 | 37.76200 | -5.13909 | 15437 ft | 402 kts | 30° |
| 2026-05-08 21:48 | 37.78646 | -5.12136 | 14972 ft | 399 kts | 30° |
| 2026-05-08 21:48 | 37.81015 | -5.10422 | 14518 ft | 396 kts | 29° |
| 2026-05-08 21:48 | 37.83398 | -5.08703 | 14049 ft | 394 kts | 29° |
| 2026-05-08 21:48 | 37.85773 | -5.06991 | 13578 ft | 392 kts | 29° |
| 2026-05-08 21:49 | 37.88134 | -5.05285 | 13073 ft | 389 kts | 29° |
| 2026-05-08 21:49 | 37.90469 | -5.03593 | 12609 ft | 385 kts | 29° |
| 2026-05-08 21:49 | 37.92784 | -5.01916 | 12129 ft | 381 kts | 30° |
| 2026-05-08 21:49 | 37.95076 | -5.00255 | 11651 ft | 378 kts | 30° |
| 2026-05-08 21:50 | 37.97346 | -4.98609 | 11162 ft | 375 kts | 30° |
| 2026-05-08 21:50 | 37.99602 | -4.96971 | 10669 ft | 372 kts | 30° |
| 2026-05-08 21:50 | 38.01809 | -4.95356 | 10471 ft | 360 kts | 32° |
| 2026-05-08 21:50 | 38.03764 | -4.93501 | 10331 ft | 342 kts | 45° |
| 2026-05-08 21:51 | 38.05407 | -4.91473 | 9953 ft | 321 kts | 46° |
| 2026-05-08 21:51 | 38.06973 | -4.89525 | 9514 ft | 309 kts | 47° |
| 2026-05-08 21:51 | 38.08512 | -4.87610 | 9403 ft | 310 kts | 47° |
| 2026-05-08 21:51 | 38.10049 | -4.85691 | 9256 ft | 308 kts | 47° |
| 2026-05-08 21:52 | 38.11568 | -4.83792 | 9130 ft | 306 kts | 47° |
| 2026-05-08 21:52 | 38.13082 | -4.81899 | 8812 ft | 304 kts | 47° |
| 2026-05-08 21:52 | 38.14487 | -4.79918 | 8443 ft | 298 kts | 61° |
| 2026-05-08 21:52 | 38.15267 | -4.77545 | 8084 ft | 287 kts | 83° |
| 2026-05-08 21:53 | 38.15329 | -4.75056 | 7722 ft | 278 kts | 103° |
| 2026-05-08 21:53 | 38.14738 | -4.72769 | 7352 ft | 270 kts | 122° |
| 2026-05-08 21:53 | 38.13691 | -4.70815 | 7005 ft | 268 kts | 129° |
| 2026-05-08 21:53 | 38.12601 | -4.68901 | 6638 ft | 267 kts | 128° |
| 2026-05-08 21:54 | 38.11516 | -4.67001 | 6287 ft | 265 kts | 130° |
| 2026-05-08 21:54 | 38.10147 | -4.65512 | 5987 ft | 258 kts | 156° |
| 2026-05-08 21:54 | 38.08439 | -4.65005 | 5650 ft | 250 kts | 182° |
| 2026-05-08 21:54 | 38.06787 | -4.65532 | 5347 ft | 245 kts | 208° |
| 2026-05-08 21:55 | 38.05411 | -4.66774 | 5029 ft | 242 kts | 217° |
| 2026-05-08 21:55 | 38.04087 | -4.68065 | 4725 ft | 238 kts | 217° |
| 2026-05-08 21:55 | 38.02779 | -4.69330 | 4415 ft | 236 kts | 216° |
| 2026-05-08 21:56 | 38.00189 | -4.71757 | 3846 ft | 224 kts | 214° |
| 2026-05-08 21:56 | 37.98922 | -4.72832 | 3568 ft | 215 kts | 213° |
| 2026-05-08 21:56 | 37.97702 | -4.73846 | 3352 ft | 204 kts | 213° |
| 2026-05-08 21:56 | 37.96569 | -4.74786 | 3132 ft | 187 kts | 213° |
| 2026-05-08 21:57 | 37.95551 | -4.75634 | 2890 ft | 165 kts | 213° |
| 2026-05-08 21:57 | 37.94641 | -4.76395 | 2672 ft | 151 kts | 213° |
| 2026-05-08 21:57 | 37.93785 | -4.77115 | 2466 ft | 146 kts | 213° |
| 2026-05-08 21:57 | 37.92951 | -4.77817 | 2264 ft | 143 kts | 213° |
| 2026-05-08 21:58 | 37.92125 | -4.78513 | 2069 ft | 142 kts | 214° |
| 2026-05-08 21:58 | 37.91300 | -4.79209 | 1878 ft | 142 kts | 213° |
| 2026-05-08 21:58 | 37.90469 | -4.79907 | 1689 ft | 144 kts | 213° |
| 2026-05-08 21:58 | 37.89634 | -4.80609 | 1481 ft | 144 kts | 213° |
| 2026-05-08 21:59 | 37.88798 | -4.81313 | 1285 ft | 144 kts | 213° |
| 2026-05-08 21:59 | 37.87975 | -4.82008 | 1085 ft | 142 kts | 214° |
| 2026-05-08 21:59 | 37.87165 | -4.82728 | 869 ft | 142 kts | 217° |
| 2026-05-08 21:59 | 37.86321 | -4.83385 | 673 ft | 143 kts | 211° |
| 2026-05-08 22:00 | 37.85446 | -4.83990 | 511 ft | 144 kts | 212° |
| 2026-05-08 22:00 | 37.84571 | -4.84608 | 315 ft | 141 kts | 209° |
| 2026-05-08 22:00 | 37.83790 | -4.85181 | 303 ft | 114 kts | 209° |
| 2026-05-08 22:00 | 37.83544 | -4.85351 | 302 ft | 0 kts | 211° |
| 2026-05-08 22:01 | 37.83531 | -4.85372 | 301 ft | 9 kts | 243° |
| 2026-05-08 22:01 | 37.83507 | -4.85377 | 302 ft | 2 kts | 88° |
| 2026-05-08 22:01 | 37.83532 | -4.85352 | 300 ft | 8 kts | 34° |
| 2026-05-08 22:01 | 37.83578 | -4.85319 | 301 ft | 8 kts | 29° |
| 2026-05-08 22:02 | 37.83659 | -4.85262 | 303 ft | 20 kts | 28° |
| 2026-05-08 22:02 | 37.83786 | -4.85174 | 303 ft | 21 kts | 29° |
| 2026-05-08 22:02 | 37.83917 | -4.85083 | 304 ft | 23 kts | 29° |
| 2026-05-08 22:02 | 37.84022 | -4.85011 | 302 ft | 16 kts | 29° |
| 2026-05-08 22:03 | 37.84116 | -4.84944 | 301 ft | 15 kts | 29° |
| 2026-05-08 22:03 | 37.84205 | -4.84881 | 304 ft | 14 kts | 30° |
| 2026-05-08 22:03 | 37.84281 | -4.84828 | 305 ft | 12 kts | 30° |
| 2026-05-08 22:03 | 37.84355 | -4.84759 | 305 ft | 10 kts | 65° |
| 2026-05-08 22:04 | 37.84342 | -4.84693 | 308 ft | 6 kts | 115° |
| 2026-05-08 22:04 | 37.84339 | -4.84686 | 308 ft | 0 kts | 115° |
| 2026-05-08 22:05 | 37.84339 | -4.84685 | 308 ft | 1 kts | 115° |
| 2026-05-08 22:05 | 37.84313 | -4.84617 | 311 ft | 10 kts | 114° |
| 2026-05-08 22:06 | 37.84305 | -4.84600 | 309 ft | 1 kts | 139° |
| 2026-05-08 22:06 | 37.84297 | -4.84593 | 309 ft | 2 kts | 141° |
| 2026-05-08 22:06 | 37.84288 | -4.84580 | 309 ft | 3 kts | 126° |
| 2026-05-08 22:06 | 37.84284 | -4.84572 | 310 ft | 0 kts | 126° |